Harmony, Illinois
Current Conditions -  °F | °C
As of 12:35 PM on Thursday 23 Oct 2014 (Local Time) from KMQB Reporting Station
Overcast Overcast  
Wind Chill: 56°   Ceiling: 8000
Heat Index: 56°   Visibility: 10mi
Dew Point: 44°   Wind: 9mph
Humidity: 64%   Direction: 180°S
Pressure: 30.15"   Gusts: NA
Location:  40.4155°N, 91.0269°W
Report Text: KMQB 231735Z AUTO 18008KT 10SM BKN080 OVC095 14/07 A3015 RMK AO2 T01350068
Loading
Personal Weather Stations






























Interactive Weather Map
Tropical Storm Tracking
New forecast layout! Learn more

10-Day Weather Forecast

Advertisements
Track Severe Weather on mobile